Time;durP1;ratioP1;P1;durP2;ratioP2;P2;SDS_P1;SDS_P2;PMS_P1;PMS_P2;Temp;Humidity;BMP_temperature;BMP_pressure;BME280_temperature;BME280_humidity;BME280_pressure;Samples;Min_cycle;Max_cycle;Signal;HPM_P1;HPM_P2
2021/08/21 00:03:01;;;;;;;5.70;4.30;;;;;;;16.72;75.21;98919.56;233043;1202;22473;-73
2021/08/21 00:08:17;;;;;;;5.80;4.80;;;;;;;16.68;75.34;98918.66;233153;1202;24069;-72
2021/08/21 00:13:27;;;;;;;5.20;4.70;;;;;;;16.63;75.57;98919.67;233324;1202;24134;-71
2021/08/21 00:18:33;;;;;;;4.70;4.30;;;;;;;16.44;75.73;98922.95;233137;1202;25372;-71
2021/08/21 00:23:36;;;;;;;5.30;4.30;;;;;;;16.19;76.18;98924.43;233274;1201;25239;-72
2021/08/21 00:28:42;;;;;;;5.10;4.50;;;;;;;15.96;76.82;98922.47;233103;1202;26302;-73
2021/08/21 00:33:47;;;;;;;4.80;4.20;;;;;;;15.79;77.31;98927.05;233106;1201;24058;-71
2021/08/21 00:38:51;;;;;;;5.30;4.60;;;;;;;15.68;77.72;98931.64;233131;1202;24213;-72
2021/08/21 00:43:54;;;;;;;4.80;4.20;;;;;;;15.63;78.08;98930.60;233132;1201;24246;-71
2021/08/21 00:48:57;;;;;;;5.20;4.50;;;;;;;15.64;78.21;98933.77;233359;1201;24064;-72
2021/08/21 00:53:59;;;;;;;5.70;4.50;;;;;;;15.63;78.48;98931.37;233632;1201;24101;-72
2021/08/21 00:59:03;;;;;;;7.50;4.50;;;;;;;15.62;78.46;98926.70;233213;1202;24064;-73
2021/08/21 01:04:22;;;;;;;5.40;4.90;;;;;;;15.58;78.51;98924.27;233218;1202;24140;-72
2021/08/21 01:09:47;;;;;;;5.80;5.00;;;;;;;15.48;78.66;98913.90;233417;1205;22501;-72
2021/08/21 01:14:55;;;;;;;5.30;4.70;;;;;;;15.40;78.88;98912.91;233244;1202;22505;-73
2021/08/21 01:19:57;;;;;;;4.70;4.30;;;;;;;15.35;78.87;98910.45;233206;1201;22463;-72
2021/08/21 01:25:07;;;;;;;5.10;4.40;;;;;;;15.34;79.19;98907.91;233250;1201;25208;-72
2021/08/21 01:30:19;;;;;;;6.60;4.30;;;;;;;15.29;79.17;98906.41;233202;1202;24099;-71
2021/08/21 01:35:36;;;;;;;7.00;4.80;;;;;;;15.19;79.30;98907.27;233140;1202;25270;-72
2021/08/21 01:40:53;;;;;;;6.40;4.10;;;;;;;15.13;79.57;98911.70;233170;1202;22456;-73
2021/08/21 01:45:59;;;;;;;6.40;4.40;;;;;;;15.09;79.71;98909.88;233305;1202;22693;-71
2021/08/21 01:51:02;;;;;;;4.60;4.20;;;;;;;15.05;79.91;98909.98;233200;1201;22464;-70
2021/08/21 01:56:06;;;;;;;4.50;4.10;;;;;;;15.03;79.99;98907.39;233221;1206;24027;-73
2021/08/21 02:01:30;;;;;;;6.90;4.70;;;;;;;15.02;80.13;98907.42;233210;1205;22488;-71
2021/08/21 02:06:51;;;;;;;4.90;4.40;;;;;;;15.01;80.28;98911.01;233074;1205;24079;-72
2021/08/21 02:11:57;;;;;;;5.30;4.80;;;;;;;15.01;80.34;98914.54;233206;1205;25206;-71
2021/08/21 02:17:03;;;;;;;5.80;4.80;;;;;;;14.99;80.29;98919.39;233223;1206;24924;-73
2021/08/21 02:22:09;;;;;;;6.80;4.60;;;;;;;14.97;80.29;98919.40;233263;1204;22463;-72
2021/08/21 02:27:12;;;;;;;5.60;5.10;;;;;;;14.94;80.38;98914.95;233111;1202;22456;-73
2021/08/21 02:32:20;;;;;;;6.80;4.90;;;;;;;14.88;80.25;98916.99;233243;1205;22464;-70
2021/08/21 02:37:38;;;;;;;5.60;4.70;;;;;;;14.82;80.27;98922.61;233122;1206;25924;-70
2021/08/21 02:42:41;;;;;;;4.40;4.00;;;;;;;14.80;80.61;98920.30;233329;1205;25294;-70
2021/08/21 02:47:44;;;;;;;5.30;4.50;;;;;;;14.87;80.93;98919.29;233198;1202;22481;-71
2021/08/21 02:52:50;;;;;;;4.30;3.90;;;;;;;14.92;80.85;98925.27;233116;1202;24119;-71
2021/08/21 02:57:54;;;;;;;5.20;4.30;;;;;;;14.88;80.41;98924.63;233140;1202;22501;-73
2021/08/21 03:03:15;;;;;;;5.30;4.40;;;;;;;14.86;80.56;98925.70;232994;1202;24055;-70
2021/08/21 03:08:22;;;;;;;5.50;5.00;;;;;;;14.84;80.62;98930.33;232965;1202;24175;-72
2021/08/21 03:13:26;;;;;;;5.70;4.30;;;;;;;14.84;80.84;98932.77;232981;1203;22466;-72
2021/08/21 03:18:34;;;;;;;5.00;4.50;;;;;;;14.83;80.85;98934.77;233284;1205;22446;-72
2021/08/21 03:23:38;;;;;;;6.00;5.10;;;;;;;14.81;80.89;98936.49;233109;1205;22560;-72
2021/08/21 03:28:42;;;;;;;5.90;4.90;;;;;;;14.79;80.92;98941.02;233230;1202;25692;-73
2021/08/21 03:34:09;;;;;;;6.30;5.60;;;;;;;14.77;80.96;98945.25;233199;1201;22559;-71
2021/08/21 03:39:12;;;;;;;5.40;4.90;;;;;;;14.76;80.70;98947.55;233229;1202;24198;-71
2021/08/21 03:44:16;;;;;;;6.10;5.50;;;;;;;14.75;80.92;98949.67;233244;1201;25059;-72
2021/08/21 03:49:20;;;;;;;7.70;5.10;;;;;;;14.74;80.82;98947.31;233285;1201;24166;-73
2021/08/21 03:54:23;;;;;;;6.50;4.10;;;;;;;14.71;80.69;98955.75;232977;1204;24150;-71
2021/08/21 03:59:28;;;;;;;5.50;4.40;;;;;;;14.68;80.72;98962.69;233197;1202;24028;-73
2021/08/21 04:04:32;;;;;;;5.10;4.10;;;;;;;14.67;80.76;98964.34;233132;1203;24053;-70
2021/08/21 04:09:53;;;;;;;5.30;4.00;;;;;;;14.70;80.91;98968.09;233074;1201;24146;-73
2021/08/21 04:14:59;;;;;;;7.00;5.70;;;;;;;14.78;80.94;98967.55;233226;1201;24102;-71
2021/08/21 04:20:06;;;;;;;6.20;5.20;;;;;;;14.87;80.98;98982.77;233066;1202;24764;-72
2021/08/21 04:25:22;;;;;;;5.50;4.80;;;;;;;14.91;80.71;98978.09;233105;1203;22517;-72
2021/08/21 04:30:44;;;;;;;6.90;5.10;;;;;;;14.98;80.73;98981.57;233105;1195;24046;-72
2021/08/21 04:35:49;;;;;;;6.10;4.50;;;;;;;15.09;80.90;98988.38;233019;1202;24085;-72
2021/08/21 04:40:52;;;;;;;7.50;5.90;;;;;;;15.22;80.81;98995.20;233098;1205;23169;-73
2021/08/21 04:46:05;;;;;;;6.50;5.90;;;;;;;15.31;80.38;98998.47;233009;1203;24483;-72
2021/08/21 04:51:10;;;;;;;6.50;5.90;;;;;;;15.36;80.22;99003.17;233043;1203;24107;-71
2021/08/21 04:56:13;;;;;;;6.40;5.70;;;;;;;15.42;80.34;99005.09;233106;1201;24089;-72
2021/08/21 05:01:34;;;;;;;5.10;4.60;;;;;;;15.54;80.40;99014.85;233117;1195;24511;-72
2021/08/21 05:06:39;;;;;;;5.00;4.50;;;;;;;15.60;80.10;99021.55;233127;1203;22901;-71
2021/08/21 05:11:42;;;;;;;5.80;4.30;;;;;;;15.66;79.94;99021.96;232981;1203;22529;-71
2021/08/21 05:17:07;;;;;;;4.40;4.00;;;;;;;15.72;79.70;99032.47;232721;1206;22458;-72
2021/08/21 05:28:00;;;;;;;5.10;4.60;;;;;;;15.72;79.74;99029.66;233238;1206;24098;-73
2021/08/21 05:33:06;;;;;;;5.90;4.70;;;;;;;15.77;79.66;99031.46;233106;1202;24201;-73
2021/08/21 05:38:10;;;;;;;5.90;5.30;;;;;;;15.89;79.87;99038.73;233137;1206;24153;-72
2021/08/21 05:43:13;;;;;;;6.30;5.40;;;;;;;16.03;79.88;99044.61;233341;1205;23339;-73
2021/08/21 05:48:15;;;;;;;7.00;5.70;;;;;;;16.16;79.89;99050.20;233385;1202;24225;-71
2021/08/21 05:53:18;;;;;;;6.40;5.30;;;;;;;16.37;80.01;99051.25;233309;1207;24098;-70
2021/08/21 05:58:21;;;;;;;7.10;5.80;;;;;;;16.65;80.10;99049.95;233323;1205;24144;-71
2021/08/21 06:03:24;;;;;;;8.40;6.70;;;;;;;16.96;80.09;99053.48;233390;1202;22627;-73
2021/08/21 06:08:26;;;;;;;7.40;6.70;;;;;;;17.19;79.74;99053.98;232995;1202;24089;-72
2021/08/21 06:13:33;;;;;;;9.30;7.00;;;;;;;17.31;79.26;99052.95;233197;1203;24076;-70
2021/08/21 06:18:36;;;;;;;6.20;5.30;;;;;;;17.45;79.29;99057.26;233245;1209;25239;-72
2021/08/21 06:23:43;;;;;;;8.70;7.60;;;;;;;17.57;78.83;99062.98;233193;1201;22449;-72
2021/08/21 06:28:45;;;;;;;9.90;7.70;;;;;;;17.68;78.91;99060.36;233229;1205;22478;-73
2021/08/21 06:33:47;;;;;;;9.10;8.20;;;;;;;17.83;79.01;99056.61;233253;1199;25031;-70
2021/08/21 06:38:50;;;;;;;11.50;8.60;;;;;;;18.05;79.03;99061.23;233595;1201;25197;-70
2021/08/21 06:43:53;;;;;;;10.50;8.50;;;;;;;18.24;78.71;99067.35;233614;1201;24092;-72
2021/08/21 06:49:16;;;;;;;10.00;8.60;;;;;;;18.51;78.49;99066.20;233427;1206;24134;-71
2021/08/21 06:54:19;;;;;;;12.70;9.60;;;;;;;18.82;78.27;99070.29;233638;1202;25253;-71
2021/08/21 06:59:22;;;;;;;11.90;9.40;;;;;;;19.07;77.62;99068.58;233906;1201;24175;-71
2021/08/21 07:04:25;;;;;;;10.30;8.40;;;;;;;19.29;76.81;99070.54;233570;1202;24088;-70
2021/08/21 07:09:36;;;;;;;10.60;9.20;;;;;;;19.47;76.12;99072.45;234231;1206;24085;-70
2021/08/21 07:14:51;;;;;;;12.40;8.40;;;;;;;19.75;75.48;99071.48;233489;1203;22623;-74
2021/08/21 07:19:55;;;;;;;9.40;7.80;;;;;;;19.83;74.60;99075.23;233434;1203;24144;-71
2021/08/21 07:24:58;;;;;;;8.30;6.60;;;;;;;19.87;73.91;99081.00;233642;1202;25296;-72
2021/08/21 07:30:00;;;;;;;11.90;7.90;;;;;;;19.99;73.18;99081.52;233544;1195;24026;-72
2021/08/21 07:35:11;;;;;;;9.60;6.60;;;;;;;20.16;72.50;99083.46;233535;1206;24108;-72
2021/08/21 07:40:35;;;;;;;7.00;6.10;;;;;;;20.33;71.40;99091.20;233618;1201;25210;-72
2021/08/21 07:45:38;;;;;;;5.90;5.30;;;;;;;20.49;70.48;99100.95;233954;1202;23707;-74
2021/08/21 07:50:40;;;;;;;6.40;5.40;;;;;;;20.64;68.63;99103.17;233634;1201;22558;-72
2021/08/21 07:55:46;;;;;;;5.90;5.30;;;;;;;20.80;67.78;99105.61;233529;1201;22489;-74
2021/08/21 08:00:48;;;;;;;7.10;5.80;;;;;;;20.91;66.84;99110.95;233560;1194;24056;-74
2021/08/21 08:05:51;;;;;;;5.30;4.80;;;;;;;20.92;65.92;99111.21;234522;1202;24070;-72
2021/08/21 08:10:55;;;;;;;7.30;5.80;;;;;;;21.05;65.37;99116.53;233987;1201;22528;-74
2021/08/21 08:15:59;;;;;;;6.70;6.00;;;;;;;21.23;64.85;99112.55;233981;1201;22909;-72
2021/08/21 08:21:03;;;;;;;7.30;6.20;;;;;;;21.43;64.03;99115.45;233572;1201;24099;-71
2021/08/21 08:26:05;;;;;;;7.50;6.70;;;;;;;21.67;63.36;99118.36;233831;1195;22457;-73
2021/08/21 08:31:18;;;;;;;7.40;6.60;;;;;;;21.82;62.73;99121.82;234007;1206;24057;-72
2021/08/21 08:36:38;;;;;;;7.00;6.30;;;;;;;22.20;62.77;99118.35;234186;1201;22458;-72
2021/08/21 08:41:43;;;;;;;6.30;5.70;;;;;;;22.50;61.71;99124.66;233353;1201;24068;-73
2021/08/21 08:46:46;;;;;;;7.20;6.50;;;;;;;22.51;60.55;99126.23;233450;1201;24066;-72
2021/08/21 08:51:49;;;;;;;7.30;6.40;;;;;;;22.52;60.11;99128.14;233285;1202;24044;-72
2021/08/21 08:56:51;;;;;;;6.50;5.70;;;;;;;22.63;59.49;99131.23;233361;1195;22492;-72
2021/08/21 09:01:54;;;;;;;6.70;6.10;;;;;;;22.84;59.05;99130.31;233466;1202;22598;-72
2021/08/21 09:06:57;;;;;;;6.60;6.00;;;;;;;22.98;57.98;99129.45;233683;1201;22446;-72
2021/08/21 09:12:29;;;;;;;7.90;5.90;;;;;;;22.83;57.35;99135.27;233641;1202;24016;-71
2021/08/21 09:17:59;;;;;;;7.20;6.00;;;;;;;22.65;57.06;99136.98;234182;1201;24125;-72
2021/08/21 09:23:18;;;;;;;7.20;6.50;;;;;;;22.72;57.04;99136.48;233808;1200;23106;-71
2021/08/21 09:28:43;;;;;;;6.20;5.60;;;;;;;22.92;56.07;99134.66;233829;1196;25261;-71
2021/08/21 09:33:56;;;;;;;6.50;5.70;;;;;;;23.17;55.99;99130.27;233794;1196;22463;-73
2021/08/21 09:39:10;;;;;;;6.60;5.80;;;;;;;23.78;55.75;99130.63;233666;1201;23195;-73
2021/08/21 09:44:23;;;;;;;6.90;5.80;;;;;;;24.01;54.14;99134.17;233661;1201;24070;-72
2021/08/21 09:49:25;;;;;;;7.40;6.60;;;;;;;23.86;53.31;99138.96;233791;1201;25209;-72
2021/08/21 09:54:28;;;;;;;6.80;6.20;;;;;;;23.57;53.43;99134.60;233663;1201;25286;-71
2021/08/21 09:59:42;;;;;;;7.00;6.30;;;;;;;23.45;53.85;99142.46;234200;1195;24245;-73
2021/08/21 10:04:44;;;;;;;7.40;6.70;;;;;;;23.26;53.76;99139.34;233577;1201;22628;-73
2021/08/21 10:09:50;;;;;;;6.80;6.20;;;;;;;23.17;53.92;99137.33;233485;1201;24162;-73
2021/08/21 10:14:53;;;;;;;6.00;5.30;;;;;;;23.20;53.83;99135.10;233665;1201;22561;-71
2021/08/21 10:19:57;;;;;;;6.00;5.50;;;;;;;23.31;53.37;99135.75;233519;1201;22460;-72
2021/08/21 10:25:05;;;;;;;5.70;5.20;;;;;;;23.43;52.85;99135.09;233541;1201;22460;-71
2021/08/21 10:30:15;;;;;;;6.60;6.00;;;;;;;23.41;52.79;99128.98;233919;1202;23528;-71
2021/08/21 10:35:19;;;;;;;6.20;5.60;;;;;;;23.36;52.62;99125.77;233710;1201;22503;-72
2021/08/21 10:40:35;;;;;;;5.80;5.30;;;;;;;23.31;52.26;99125.38;233520;1193;22469;-70
2021/08/21 10:45:58;;;;;;;5.50;5.00;;;;;;;23.31;52.28;99118.73;233619;1193;22635;-73
2021/08/21 10:51:04;;;;;;;5.40;4.80;;;;;;;23.33;52.61;99117.38;233709;1201;22618;-71
2021/08/21 10:56:36;;;;;;;5.40;4.90;;;;;;;23.51;52.03;99116.15;233640;1201;22462;-72
2021/08/21 11:01:39;;;;;;;5.40;4.90;;;;;;;23.63;51.36;99116.56;233796;1201;22449;-72
2021/08/21 11:06:41;;;;;;;5.60;4.90;;;;;;;23.73;51.43;99118.42;234309;1201;22443;-73
2021/08/21 11:11:49;;;;;;;5.60;5.10;;;;;;;23.94;51.14;99120.01;233621;1201;22925;-69
2021/08/21 11:17:00;;;;;;;5.40;4.80;;;;;;;24.12;50.62;99117.20;233515;1201;24220;-70
2021/08/21 11:22:20;;;;;;;6.00;5.10;;;;;;;24.32;50.05;99112.29;233052;1201;25219;-72
2021/08/21 11:27:33;;;;;;;5.50;5.10;;;;;;;24.54;49.59;99112.86;233142;1201;22793;-70
2021/08/21 11:33:14;;;;;;;5.70;5.00;;;;;;;24.90;49.71;99106.83;233237;1201;24180;-70
2021/08/21 11:38:29;;;;;;;5.50;5.00;;;;;;;25.36;49.07;99111.95;233246;1202;24086;-71
2021/08/21 11:43:42;;;;;;;4.90;4.50;;;;;;;25.34;48.09;99113.59;233429;1201;24058;-71
2021/08/21 11:48:46;;;;;;;4.80;4.40;;;;;;;25.19;48.02;99115.95;233217;1201;24117;-70
2021/08/21 11:53:48;;;;;;;4.40;4.00;;;;;;;24.86;47.71;99115.17;233292;1201;25682;-71
2021/08/21 11:58:51;;;;;;;5.40;4.80;;;;;;;24.45;47.62;99111.35;233177;1208;22450;-72
2021/08/21 12:09:17;;;;;;;4.70;4.30;;;;;;;24.46;47.75;99103.21;233086;1201;22461;-71
2021/08/21 12:14:22;;;;;;;4.40;4.00;;;;;;;24.58;47.60;99101.64;233269;1193;22505;-73
2021/08/21 12:19:27;;;;;;;4.80;4.40;;;;;;;24.69;47.04;99100.37;233463;1201;22841;-70
2021/08/21 12:24:33;;;;;;;6.10;4.70;;;;;;;24.79;46.87;99099.91;233462;1203;24580;-70
2021/08/21 12:29:35;;;;;;;4.70;4.30;;;;;;;24.86;46.91;99098.66;233212;1201;22820;-70
2021/08/21 12:34:38;;;;;;;4.90;4.50;;;;;;;24.72;46.76;99097.19;233051;1201;25207;-72
2021/08/21 12:39:42;;;;;;;4.80;4.30;;;;;;;24.70;46.90;99097.71;233276;1201;25308;-71
2021/08/21 12:44:55;;;;;;;4.90;4.40;;;;;;;24.56;46.40;99094.64;233222;1201;22536;-71
2021/08/21 12:50:15;;;;;;;4.30;3.90;;;;;;;24.49;46.38;99089.48;233255;1201;24125;-71
2021/08/21 12:55:17;;;;;;;4.00;3.60;;;;;;;24.47;45.43;99085.79;233261;1201;23650;-71
2021/08/21 13:00:20;;;;;;;4.20;3.80;;;;;;;24.57;46.26;99081.36;233350;1201;24100;-71
2021/08/21 13:05:27;;;;;;;4.10;3.80;;;;;;;24.80;46.22;99077.77;233199;1201;25189;-71
2021/08/21 13:10:31;;;;;;;4.30;3.90;;;;;;;24.90;45.92;99076.86;233404;1201;25101;-70
2021/08/21 13:15:36;;;;;;;4.90;4.40;;;;;;;24.93;45.02;99080.40;233293;1201;24103;-70
2021/08/21 13:20:38;;;;;;;4.60;4.20;;;;;;;24.87;45.38;99075.57;233616;1201;24016;-71
2021/08/21 13:25:42;;;;;;;4.50;4.00;;;;;;;24.89;44.66;99073.63;233445;1203;22459;-72
2021/08/21 13:30:48;;;;;;;5.30;4.20;;;;;;;24.88;44.79;99066.10;233523;1201;24068;-71
2021/08/21 13:35:51;;;;;;;4.70;4.10;;;;;;;24.93;44.90;99064.66;233399;1201;24211;-71
2021/08/21 13:40:53;;;;;;;4.50;3.30;;;;;;;25.13;44.96;99062.41;233289;1201;24189;-71
2021/08/21 13:45:55;;;;;;;3.90;3.60;;;;;;;25.23;44.63;99055.89;233300;1201;24066;-72
2021/08/21 13:50:59;;;;;;;4.60;3.40;;;;;;;25.25;44.28;99056.63;233233;1201;25222;-71
2021/08/21 13:56:02;;;;;;;3.40;3.10;;;;;;;25.19;44.00;99057.51;233187;1201;22519;-71
2021/08/21 14:01:08;;;;;;;3.00;2.80;;;;;;;25.19;44.06;99049.92;233171;1201;24163;-71
2021/08/21 14:06:11;;;;;;;3.20;2.90;;;;;;;25.23;43.94;99051.59;233153;1202;24060;-71
2021/08/21 14:11:15;;;;;;;3.50;3.20;;;;;;;25.20;43.56;99050.23;233205;1201;22455;-72
2021/08/21 14:16:23;;;;;;;3.30;3.10;;;;;;;25.17;43.58;99046.69;233154;1201;24214;-71
2021/08/21 14:21:26;;;;;;;4.00;3.60;;;;;;;25.09;43.73;99052.59;233091;1201;24112;-73
2021/08/21 14:26:29;;;;;;;3.70;3.40;;;;;;;24.96;43.79;99047.23;233025;1201;26206;-72
2021/08/21 14:31:31;;;;;;;8.90;3.80;;;;;;;24.78;44.02;99043.71;233337;1201;22488;-70
2021/08/21 14:36:34;;;;;;;4.00;3.70;;;;;;;24.48;44.07;99038.55;233342;1202;22524;-71
2021/08/21 14:41:37;;;;;;;4.00;3.60;;;;;;;24.24;44.40;99039.06;233220;1195;24048;-72
2021/08/21 14:46:40;;;;;;;3.40;3.10;;;;;;;24.16;44.70;99040.60;233032;1201;22654;-71
2021/08/21 14:51:43;;;;;;;3.90;3.30;;;;;;;24.12;44.88;99034.33;233385;1201;24088;-71
2021/08/21 14:56:46;;;;;;;4.90;4.30;;;;;;;24.15;45.15;99032.80;233422;1201;24150;-69
2021/08/21 15:01:49;;;;;;;4.20;3.80;;;;;;;24.23;45.00;99026.86;233249;1195;24124;-71
2021/08/21 15:07:05;;;;;;;3.50;3.20;;;;;;;24.34;45.46;99025.96;233188;1202;24058;-70
2021/08/21 15:12:16;;;;;;;3.60;3.30;;;;;;;24.35;44.98;99025.74;233390;1201;24160;-73
2021/08/21 15:17:19;;;;;;;3.60;3.30;;;;;;;24.27;45.38;99022.45;233350;1201;24058;-71
2021/08/21 15:22:24;;;;;;;7.40;3.10;;;;;;;24.29;44.68;99016.52;233253;1208;24205;-71
2021/08/21 15:27:26;;;;;;;4.40;3.30;;;;;;;24.31;44.34;99014.44;233433;1201;25212;-72
2021/08/21 15:32:29;;;;;;;3.40;3.00;;;;;;;24.20;44.22;99015.80;232953;1196;24174;-71
2021/08/21 15:37:35;;;;;;;3.10;2.90;;;;;;;24.25;44.60;99006.47;232954;1201;22605;-72
2021/08/21 15:42:38;;;;;;;3.90;2.90;;;;;;;24.34;44.33;99008.05;232996;1202;24059;-72
2021/08/21 15:47:41;;;;;;;4.00;3.40;;;;;;;24.38;44.17;99005.20;232980;1208;22575;-72
2021/08/21 15:53:02;;;;;;;3.60;3.30;;;;;;;24.38;44.27;99005.35;233257;1193;24206;-70
2021/08/21 15:58:04;;;;;;;5.00;3.70;;;;;;;24.36;44.30;99004.34;233032;1201;24099;-72
2021/08/21 16:03:07;;;;;;;4.30;3.30;;;;;;;24.36;44.36;99001.05;233164;1201;22517;-70
2021/08/21 16:08:10;;;;;;;3.20;2.90;;;;;;;24.35;44.26;98997.97;233037;1196;22510;-72
2021/08/21 16:13:13;;;;;;;3.70;3.40;;;;;;;24.25;44.20;98993.02;233088;1201;24069;-70
2021/08/21 16:18:36;;;;;;;3.40;3.10;;;;;;;24.12;44.57;98989.84;232989;1201;24054;-72
2021/08/21 16:23:38;;;;;;;24.00;21.50;;;;;;;24.02;45.21;98994.34;233086;1201;22439;-74
2021/08/21 16:28:41;;;;;;;4.40;3.90;;;;;;;23.96;45.45;98991.91;233108;1201;24126;-69
2021/08/21 16:33:45;;;;;;;4.00;3.20;;;;;;;23.88;45.30;98987.29;233240;1202;22516;-70
2021/08/21 16:38:48;;;;;;;3.60;3.20;;;;;;;23.75;45.28;98988.20;233084;1202;25036;-71
2021/08/21 16:43:50;;;;;;;3.70;3.40;;;;;;;23.64;45.50;98989.71;233235;1202;24204;-71
2021/08/21 16:49:07;;;;;;;3.10;2.90;;;;;;;23.53;45.70;98992.36;233238;1201;24027;-71
2021/08/21 16:54:30;;;;;;;3.50;3.20;;;;;;;23.41;45.75;98991.89;233211;1201;24131;-71
2021/08/21 16:59:32;;;;;;;3.20;2.90;;;;;;;23.31;45.66;98985.36;232993;1201;24093;-71
2021/08/21 17:04:35;;;;;;;3.20;2.90;;;;;;;23.20;45.60;98989.65;233154;1202;22442;-72
2021/08/21 17:09:38;;;;;;;3.20;2.80;;;;;;;23.10;45.70;98988.39;233168;1196;24093;-71
2021/08/21 17:14:40;;;;;;;3.60;3.20;;;;;;;22.99;46.15;98992.98;233172;1202;24141;-72
2021/08/21 17:19:43;;;;;;;13.90;11.50;;;;;;;22.85;47.00;98994.30;233208;1201;22563;-72
2021/08/21 17:24:45;;;;;;;4.10;3.70;;;;;;;22.66;47.43;98993.77;233345;1201;24121;-72
2021/08/21 17:29:48;;;;;;;3.60;3.20;;;;;;;22.46;48.10;98998.10;233173;1202;25184;-71
2021/08/21 17:34:50;;;;;;;4.90;3.40;;;;;;;22.23;48.68;98998.60;233145;1202;24099;-71
2021/08/21 17:39:53;;;;;;;3.70;3.40;;;;;;;21.99;49.54;98999.00;233025;1195;24069;-71
2021/08/21 17:44:55;;;;;;;4.10;3.60;;;;;;;21.74;50.01;99004.03;233325;1201;24184;-72
2021/08/21 17:49:58;;;;;;;4.20;3.80;;;;;;;21.49;50.55;99007.35;233438;1200;24103;-71
2021/08/21 17:55:10;;;;;;;4.40;3.50;;;;;;;21.22;51.43;99016.95;232985;1201;23991;-72
2021/08/21 18:00:16;;;;;;;5.00;4.40;;;;;;;20.91;52.46;99021.05;233306;1196;22502;-72
2021/08/21 18:05:20;;;;;;;5.00;4.00;;;;;;;20.62;53.07;99026.05;233082;1198;24068;-72
2021/08/21 18:10:22;;;;;;;6.00;4.30;;;;;;;20.36;53.68;99030.88;233236;1201;24094;-70
2021/08/21 18:15:26;;;;;;;4.70;3.80;;;;;;;20.11;54.05;99033.30;233463;1201;24074;-70
2021/08/21 18:20:37;;;;;;;5.00;4.00;;;;;;;19.90;54.83;99037.14;233417;1205;24204;-72
2021/08/21 18:25:59;;;;;;;7.30;4.30;;;;;;;19.72;55.65;99035.27;233152;1201;24068;-71
2021/08/21 18:31:03;;;;;;;6.40;4.60;;;;;;;19.57;56.06;99038.88;233006;1201;24141;-72
2021/08/21 18:36:06;;;;;;;4.40;4.00;;;;;;;19.43;56.00;99039.04;233242;1196;24064;-72
2021/08/21 18:41:08;;;;;;;4.10;3.70;;;;;;;19.28;56.00;99036.27;233082;1202;24189;-69
2021/08/21 18:46:11;;;;;;;5.00;3.90;;;;;;;19.14;56.34;99038.61;233295;1201;24099;-73
2021/08/21 18:51:14;;;;;;;5.90;4.00;;;;;;;18.97;56.88;99039.16;233471;1200;24083;-71
2021/08/21 18:56:16;;;;;;;5.80;4.90;;;;;;;18.81;57.13;99039.08;233081;1202;24100;-72
2021/08/21 19:01:21;;;;;;;5.00;4.50;;;;;;;18.69;57.45;99042.00;232963;1202;24250;-72
2021/08/21 19:06:24;;;;;;;6.20;4.90;;;;;;;18.62;57.99;99040.16;233389;1201;24057;-73
2021/08/21 19:11:27;;;;;;;8.60;6.50;;;;;;;18.55;58.47;99044.03;233098;1196;24166;-72
2021/08/21 19:16:31;;;;;;;8.30;6.80;;;;;;;18.49;58.88;99041.91;233334;1201;24145;-72
2021/08/21 19:21:34;;;;;;;9.00;7.40;;;;;;;18.38;59.34;99040.08;233321;1202;22495;-73
2021/08/21 19:26:36;;;;;;;11.10;7.80;;;;;;;18.24;59.89;99043.45;233133;1202;24084;-72
2021/08/21 19:31:39;;;;;;;10.60;8.00;;;;;;;18.15;60.67;99043.77;233176;1201;25220;-71
2021/08/21 19:36:42;;;;;;;11.10;8.40;;;;;;;18.08;61.00;99037.50;233363;1201;24064;-72
2021/08/21 19:41:45;;;;;;;10.60;9.10;;;;;;;18.03;61.34;99037.13;233324;1203;24099;-73
2021/08/21 19:46:47;;;;;;;13.10;9.70;;;;;;;17.95;61.41;99038.15;233172;1196;24132;-72
2021/08/21 19:51:50;;;;;;;17.60;13.40;;;;;;;17.84;61.95;99033.65;233204;1201;22502;-73
2021/08/21 19:56:52;;;;;;;18.10;13.40;;;;;;;17.76;62.59;99033.57;233161;1203;24615;-70
2021/08/21 20:01:55;;;;;;;17.70;12.30;;;;;;;17.72;63.04;99037.06;233066;1202;22463;-73
2021/08/21 20:06:58;;;;;;;14.70;11.40;;;;;;;17.67;63.30;99040.90;233221;1201;24217;-72
2021/08/21 20:12:00;;;;;;;14.70;11.10;;;;;;;17.55;63.65;99051.46;232964;1200;24633;-72
2021/08/21 20:17:05;;;;;;;14.00;9.80;;;;;;;17.42;64.25;99051.73;233251;1201;24096;-71
2021/08/21 20:22:07;;;;;;;13.90;10.60;;;;;;;17.33;64.82;99048.40;233194;1202;24220;-71
2021/08/21 20:27:37;;;;;;;14.70;11.60;;;;;;;17.20;65.39;99045.66;233191;1200;24053;-70
2021/08/21 20:32:42;;;;;;;12.60;11.10;;;;;;;17.12;65.93;99045.27;233059;1201;25285;-72
2021/08/21 20:37:45;;;;;;;16.60;11.60;;;;;;;17.06;66.32;99038.77;233479;1207;22399;-72
2021/08/21 20:42:55;;;;;;;14.10;12.00;;;;;;;17.04;66.71;99036.75;233552;1196;24218;-72
2021/08/21 20:48:01;;;;;;;16.30;12.70;;;;;;;17.00;66.89;99036.51;233372;1201;24165;-72
2021/08/21 20:53:04;;;;;;;15.50;12.60;;;;;;;16.93;66.85;99039.02;233326;1201;24106;-72
2021/08/21 20:58:07;;;;;;;13.60;11.10;;;;;;;16.85;67.03;99037.49;233338;1201;24129;-72
2021/08/21 21:03:13;;;;;;;14.80;11.40;;;;;;;16.77;67.21;99033.30;233251;1206;24090;-71
2021/08/21 21:08:15;;;;;;;13.80;11.50;;;;;;;16.71;67.38;99029.98;233158;1201;22554;-72
2021/08/21 21:13:19;;;;;;;13.20;11.10;;;;;;;16.66;67.44;99032.23;233456;1203;24056;-70
2021/08/21 21:18:24;;;;;;;14.50;10.70;;;;;;;16.56;67.60;99031.45;233708;1203;24066;-71
2021/08/21 21:23:26;;;;;;;12.30;10.60;;;;;;;16.48;67.74;99030.88;233365;1201;24170;-72
2021/08/21 21:28:29;;;;;;;12.30;10.40;;;;;;;16.39;68.05;99031.20;233236;1203;24088;-72
2021/08/21 21:33:33;;;;;;;14.00;11.90;;;;;;;16.31;68.38;99035.07;233184;1202;25369;-71
2021/08/21 21:38:36;;;;;;;13.50;11.50;;;;;;;16.21;68.60;99035.67;233375;1202;22446;-72
2021/08/21 21:43:40;;;;;;;13.20;11.50;;;;;;;16.12;68.84;99038.05;233237;1206;24214;-72
2021/08/21 21:48:43;;;;;;;15.50;11.60;;;;;;;16.05;69.32;99039.52;233489;1196;24043;-72
2021/08/21 21:53:46;;;;;;;15.40;11.80;;;;;;;16.03;69.75;99030.05;233289;1201;22530;-70
2021/08/21 21:58:49;;;;;;;13.50;12.10;;;;;;;16.02;70.05;99031.27;233397;1201;24099;-72
2021/08/21 22:03:52;;;;;;;13.70;11.50;;;;;;;15.97;69.94;99033.91;233459;1202;24077;-72
2021/08/21 22:08:56;;;;;;;13.50;11.30;;;;;;;15.89;69.89;99032.51;233266;1202;24185;-72
2021/08/21 22:13:59;;;;;;;13.20;11.70;;;;;;;15.85;70.10;99034.76;233166;1201;25161;-72
2021/08/21 22:19:05;;;;;;;14.50;11.80;;;;;;;15.76;70.24;99032.66;233011;1201;24065;-72
2021/08/21 22:24:15;;;;;;;13.90;11.00;;;;;;;15.69;70.30;99033.91;232966;1205;24178;-72
2021/08/21 22:29:23;;;;;;;12.80;10.80;;;;;;;15.61;70.36;99027.61;233050;1206;24144;-72
2021/08/21 22:34:26;;;;;;;14.00;11.60;;;;;;;15.57;70.70;99025.00;233377;1201;24099;-72
2021/08/21 22:39:28;;;;;;;14.80;11.80;;;;;;;15.57;70.81;99029.32;233160;1201;24066;-72
2021/08/21 22:44:31;;;;;;;16.30;13.30;;;;;;;15.56;70.81;99022.77;233140;1195;22775;-72
2021/08/21 22:49:34;;;;;;;11.60;9.60;;;;;;;15.54;70.76;99023.48;233225;1202;24092;-72
2021/08/21 22:54:37;;;;;;;12.60;10.40;;;;;;;15.52;70.72;99024.77;233300;1201;24169;-72
2021/08/21 22:59:39;;;;;;;15.00;11.00;;;;;;;15.46;70.76;99021.14;233260;1202;24201;-72
2021/08/21 23:04:42;;;;;;;13.70;10.50;;;;;;;15.42;71.02;99022.27;233005;1200;22504;-72
2021/08/21 23:09:44;;;;;;;11.40;9.90;;;;;;;15.38;70.97;99021.13;232947;1203;25088;-72
2021/08/21 23:14:58;;;;;;;14.20;11.50;;;;;;;15.38;71.23;99013.58;233168;1200;24018;-72
2021/08/21 23:20:21;;;;;;;15.30;11.30;;;;;;;15.38;71.33;99009.06;233298;1201;24134;-73
2021/08/21 23:25:23;;;;;;;14.30;11.10;;;;;;;15.32;71.30;99009.42;233387;1202;24102;-71
2021/08/21 23:30:26;;;;;;;14.60;10.90;;;;;;;15.29;71.35;99002.02;233250;1200;25181;-73
2021/08/21 23:35:30;;;;;;;14.40;11.50;;;;;;;15.25;71.37;99002.14;233432;1203;24052;-73
2021/08/21 23:40:34;;;;;;;13.70;11.40;;;;;;;15.20;71.47;99003.52;232923;1201;24087;-72
2021/08/21 23:45:38;;;;;;;11.70;10.50;;;;;;;15.12;71.44;98999.05;233031;1203;24065;-71
2021/08/21 23:50:41;;;;;;;13.50;10.70;;;;;;;15.01;71.56;98999.86;233125;1202;22473;-72